Petersburg, VA

6:23 AM EST on December 08, 2016 (GMT -0500)
Virginia State University | | Change Station

Elev 98 ft 37.24 °N, 77.42 °W | Updated 9 minutes ago

Overcast
Overcast
41.9 °F
Feels Like 42 °F
N
0.0
Wind Variable Wind from NNW

Today
High -- | Low -- °F
--% Chance of Precip.
Yesterday
High -- | Low -- °F
Precip. -- in
Pressure 30.03 in
Visibility 7.0 miles
Clouds Scattered Clouds 4300 ft
Mostly Cloudy 6000 ft
Mostly Cloudy 7500 ft
Windchill 42 °F
Dew Point 41 °F
Humidity 95%
Rainfall 0.00 in
Snow Depth Not available.
7:11 AM 4:52 PM
Waxing Gibbous, 62% visible
METAR KPTB 081115Z AUTO 00000KT 7SM SCT043 BKN060 BKN075 04/04 A3003 RMK AO2 T00420037
Pressure 30.03 in
Visibility 7.0 miles
Clouds Scattered Clouds 4300 ft
Mostly Cloudy 6000 ft
Mostly Cloudy 7500 ft
Windchill 42 °F
Dew Point 41 °F
Humidity 95%
Rainfall 0.00 in
Snow Depth Not available.
7:11 AM 4:52 PM
Waxing Gibbous, 62% visible
METAR KPTB 081115Z AUTO 00000KT 7SM SCT043 BKN060 BKN075 04/04 A3003 RMK AO2 T00420037

10-Day Weather Forecast

Almanac

Astronomy

Dec. 08, 2016 Rise Set
Actual Time
Civil Twilight
Nautical Twilight
Astronomical Twilight
Moon
Length of Visible Light
Length of Day
Tomorrow will be .
, % of the Moon is Illuminated

Today's Extremes

State Highs State Lows

Community

WunderPhotos

Upload Photos

1,956,261 photos uploaded!

WunderBlog® & News

Nearby

Air Quality

  Air Quality AQ Index Pollutant
Not available.

Snow Depth

Station Depth Elevation

Earthquake Activity

City Distance Mag. Time & Date
Minimum magnitude displayed is 2.5.

Coastal Water Temperatures

Place Temperature

Stations

Nearby Weather Stations

Station Location Temp. Windchill Dew Point Humidity Wind Precip. Elev Updated Type
                   

Watches & Warnings

There are currently no watches in effect.